sensor_id;sensor_type;location;lat;lon;timestamp;P1;durP1;ratioP1;P2;durP2;ratioP2
24729;SDS011;12832;52.392;13.066;2023-06-22T00:02:22;3.80;;;3.50;;
24729;SDS011;12832;52.392;13.066;2023-06-22T00:04:48;4.05;;;3.75;;
24729;SDS011;12832;52.392;13.066;2023-06-22T00:07:14;4.22;;;3.92;;
24729;SDS011;12832;52.392;13.066;2023-06-22T00:09:41;3.90;;;3.63;;
24729;SDS011;12832;52.392;13.066;2023-06-22T00:12:07;3.85;;;3.58;;
24729;SDS011;12832;52.392;13.066;2023-06-22T00:14:33;4.15;;;3.85;;
24729;SDS011;12832;52.392;13.066;2023-06-22T00:16:59;4.10;;;3.80;;
24729;SDS011;12832;52.392;13.066;2023-06-22T00:19:26;3.88;;;3.67;;
24729;SDS011;12832;52.392;13.066;2023-06-22T00:21:52;3.92;;;3.65;;
24729;SDS011;12832;52.392;13.066;2023-06-22T00:24:19;4.10;;;3.80;;
24729;SDS011;12832;52.392;13.066;2023-06-22T00:26:46;4.57;;;4.28;;
24729;SDS011;12832;52.392;13.066;2023-06-22T00:29:13;4.07;;;3.78;;
24729;SDS011;12832;52.392;13.066;2023-06-22T00:31:39;4.00;;;3.70;;
24729;SDS011;12832;52.392;13.066;2023-06-22T00:34:05;3.70;;;3.45;;
24729;SDS011;12832;52.392;13.066;2023-06-22T00:36:34;3.95;;;3.65;;
24729;SDS011;12832;52.392;13.066;2023-06-22T00:39:01;3.95;;;3.65;;
24729;SDS011;12832;52.392;13.066;2023-06-22T00:41:28;4.00;;;3.70;;
24729;SDS011;12832;52.392;13.066;2023-06-22T00:43:55;3.88;;;3.67;;
24729;SDS011;12832;52.392;13.066;2023-06-22T00:46:21;4.15;;;3.85;;
24729;SDS011;12832;52.392;13.066;2023-06-22T00:48:48;4.07;;;3.80;;
24729;SDS011;12832;52.392;13.066;2023-06-22T00:51:15;3.92;;;3.67;;
24729;SDS011;12832;52.392;13.066;2023-06-22T00:53:42;4.22;;;3.92;;
24729;SDS011;12832;52.392;13.066;2023-06-22T00:56:08;3.83;;;3.53;;
24729;SDS011;12832;52.392;13.066;2023-06-22T00:58:38;4.00;;;3.70;;
24729;SDS011;12832;52.392;13.066;2023-06-22T01:01:07;4.28;;;3.97;;
24729;SDS011;12832;52.392;13.066;2023-06-22T01:03:34;4.28;;;3.97;;
24729;SDS011;12832;52.392;13.066;2023-06-22T01:06:03;4.00;;;3.72;;
24729;SDS011;12832;52.392;13.066;2023-06-22T01:08:51;4.20;;;3.90;;
24729;SDS011;12832;52.392;13.066;2023-06-22T01:11:28;3.75;;;3.55;;
24729;SDS011;12832;52.392;13.066;2023-06-22T01:14:04;3.83;;;3.58;;
24729;SDS011;12832;52.392;13.066;2023-06-22T01:16:35;4.05;;;3.85;;
24729;SDS011;12832;52.392;13.066;2023-06-22T01:22:00;4.03;;;3.72;;
24729;SDS011;12832;52.392;13.066;2023-06-22T01:24:33;3.80;;;3.60;;
24729;SDS011;12832;52.392;13.066;2023-06-22T01:27:32;4.20;;;3.90;;
24729;SDS011;12832;52.392;13.066;2023-06-22T01:30:21;4.22;;;3.92;;
24729;SDS011;12832;52.392;13.066;2023-06-22T01:32:53;3.70;;;3.50;;
24729;SDS011;12832;52.392;13.066;2023-06-22T01:35:21;3.97;;;3.67;;
24729;SDS011;12832;52.392;13.066;2023-06-22T01:37:47;4.38;;;4.07;;
24729;SDS011;12832;52.392;13.066;2023-06-22T01:40:14;3.70;;;3.50;;
24729;SDS011;12832;52.392;13.066;2023-06-22T01:42:41;4.10;;;3.80;;
24729;SDS011;12832;52.392;13.066;2023-06-22T01:45:08;3.90;;;3.60;;
24729;SDS011;12832;52.392;13.066;2023-06-22T01:47:36;3.97;;;3.67;;
24729;SDS011;12832;52.392;13.066;2023-06-22T01:50:03;3.78;;;3.58;;
24729;SDS011;12832;52.392;13.066;2023-06-22T01:52:30;3.97;;;3.67;;
24729;SDS011;12832;52.392;13.066;2023-06-22T01:54:59;3.80;;;3.60;;
24729;SDS011;12832;52.392;13.066;2023-06-22T01:57:26;3.95;;;3.75;;
24729;SDS011;12832;52.392;13.066;2023-06-22T02:00:00;4.20;;;3.90;;
24729;SDS011;12832;52.392;13.066;2023-06-22T02:02:32;4.05;;;3.75;;
24729;SDS011;12832;52.392;13.066;2023-06-22T02:05:08;3.60;;;3.40;;
24729;SDS011;12832;52.392;13.066;2023-06-22T02:07:41;3.67;;;3.38;;
24729;SDS011;12832;52.392;13.066;2023-06-22T02:10:12;3.42;;;3.22;;
24729;SDS011;12832;52.392;13.066;2023-06-22T02:12:42;3.45;;;3.25;;
24729;SDS011;12832;52.392;13.066;2023-06-22T02:15:10;3.25;;;3.05;;
24729;SDS011;12832;52.392;13.066;2023-06-22T02:17:38;3.58;;;3.38;;
24729;SDS011;12832;52.392;13.066;2023-06-22T02:20:05;3.05;;;2.85;;
24729;SDS011;12832;52.392;13.066;2023-06-22T02:22:33;2.75;;;2.63;;
24729;SDS011;12832;52.392;13.066;2023-06-22T02:24:59;3.10;;;2.90;;
24729;SDS011;12832;52.392;13.066;2023-06-22T02:27:26;3.03;;;2.83;;
24729;SDS011;12832;52.392;13.066;2023-06-22T02:29:52;2.97;;;2.78;;
24729;SDS011;12832;52.392;13.066;2023-06-22T02:32:18;2.90;;;2.70;;
24729;SDS011;12832;52.392;13.066;2023-06-22T02:34:44;3.03;;;2.83;;
24729;SDS011;12832;52.392;13.066;2023-06-22T02:37:16;2.65;;;2.45;;
24729;SDS011;12832;52.392;13.066;2023-06-22T02:39:42;2.60;;;2.40;;
24729;SDS011;12832;52.392;13.066;2023-06-22T02:42:09;2.60;;;2.50;;
24729;SDS011;12832;52.392;13.066;2023-06-22T02:44:38;2.38;;;2.28;;
24729;SDS011;12832;52.392;13.066;2023-06-22T02:47:04;2.20;;;2.10;;
24729;SDS011;12832;52.392;13.066;2023-06-22T02:49:31;2.75;;;2.55;;
24729;SDS011;12832;52.392;13.066;2023-06-22T02:51:57;2.47;;;2.38;;
24729;SDS011;12832;52.392;13.066;2023-06-22T02:54:23;2.10;;;2.00;;
24729;SDS011;12832;52.392;13.066;2023-06-22T02:56:49;2.35;;;2.25;;
24729;SDS011;12832;52.392;13.066;2023-06-22T02:59:16;2.50;;;2.40;;
24729;SDS011;12832;52.392;13.066;2023-06-22T03:01:42;2.05;;;1.95;;
24729;SDS011;12832;52.392;13.066;2023-06-22T03:04:09;2.25;;;2.15;;
24729;SDS011;12832;52.392;13.066;2023-06-22T03:06:35;2.42;;;2.33;;
24729;SDS011;12832;52.392;13.066;2023-06-22T03:09:03;2.10;;;2.00;;
24729;SDS011;12832;52.392;13.066;2023-06-22T03:11:30;2.30;;;2.20;;
24729;SDS011;12832;52.392;13.066;2023-06-22T03:13:58;2.00;;;1.90;;
24729;SDS011;12832;52.392;13.066;2023-06-22T03:16:24;1.90;;;1.80;;
24729;SDS011;12832;52.392;13.066;2023-06-22T03:18:51;2.22;;;2.13;;
24729;SDS011;12832;52.392;13.066;2023-06-22T03:21:19;1.80;;;1.70;;
24729;SDS011;12832;52.392;13.066;2023-06-22T03:23:47;2.20;;;2.10;;
24729;SDS011;12832;52.392;13.066;2023-06-22T03:26:16;2.10;;;2.00;;
24729;SDS011;12832;52.392;13.066;2023-06-22T03:28:43;1.80;;;1.70;;
24729;SDS011;12832;52.392;13.066;2023-06-22T03:31:09;2.30;;;2.20;;
24729;SDS011;12832;52.392;13.066;2023-06-22T03:33:35;2.20;;;2.10;;
24729;SDS011;12832;52.392;13.066;2023-06-22T03:36:02;2.10;;;2.00;;
24729;SDS011;12832;52.392;13.066;2023-06-22T03:38:28;2.10;;;2.00;;
24729;SDS011;12832;52.392;13.066;2023-06-22T03:40:55;1.92;;;1.83;;
24729;SDS011;12832;52.392;13.066;2023-06-22T03:43:21;1.80;;;1.70;;
24729;SDS011;12832;52.392;13.066;2023-06-22T03:45:48;2.05;;;1.95;;
24729;SDS011;12832;52.392;13.066;2023-06-22T03:48:14;1.80;;;1.70;;
24729;SDS011;12832;52.392;13.066;2023-06-22T03:50:41;1.90;;;1.80;;
24729;SDS011;12832;52.392;13.066;2023-06-22T03:53:07;1.77;;;1.67;;
24729;SDS011;12832;52.392;13.066;2023-06-22T03:55:33;1.80;;;1.70;;
24729;SDS011;12832;52.392;13.066;2023-06-22T03:58:00;2.13;;;2.03;;
24729;SDS011;12832;52.392;13.066;2023-06-22T04:00:31;1.80;;;1.70;;
24729;SDS011;12832;52.392;13.066;2023-06-22T04:02:58;1.90;;;1.80;;
24729;SDS011;12832;52.392;13.066;2023-06-22T04:05:24;1.88;;;1.77;;
24729;SDS011;12832;52.392;13.066;2023-06-22T04:07:51;2.00;;;1.90;;
24729;SDS011;12832;52.392;13.066;2023-06-22T04:10:17;1.90;;;1.80;;
24729;SDS011;12832;52.392;13.066;2023-06-22T04:12:44;1.90;;;1.80;;
24729;SDS011;12832;52.392;13.066;2023-06-22T04:15:10;1.92;;;1.83;;
24729;SDS011;12832;52.392;13.066;2023-06-22T04:17:37;2.20;;;2.10;;
24729;SDS011;12832;52.392;13.066;2023-06-22T04:20:04;2.10;;;2.00;;
24729;SDS011;12832;52.392;13.066;2023-06-22T04:22:30;1.98;;;1.80;;
24729;SDS011;12832;52.392;13.066;2023-06-22T04:24:57;1.65;;;1.52;;
24729;SDS011;12832;52.392;13.066;2023-06-22T04:27:23;1.90;;;1.80;;
24729;SDS011;12832;52.392;13.066;2023-06-22T04:29:49;2.03;;;1.92;;
24729;SDS011;12832;52.392;13.066;2023-06-22T04:32:17;2.10;;;2.00;;
24729;SDS011;12832;52.392;13.066;2023-06-22T04:34:43;1.98;;;1.88;;
24729;SDS011;12832;52.392;13.066;2023-06-22T04:37:10;1.90;;;1.80;;
24729;SDS011;12832;52.392;13.066;2023-06-22T04:39:41;1.80;;;1.70;;
24729;SDS011;12832;52.392;13.066;2023-06-22T04:42:08;1.85;;;1.75;;
24729;SDS011;12832;52.392;13.066;2023-06-22T04:44:35;1.98;;;1.88;;
24729;SDS011;12832;52.392;13.066;2023-06-22T04:47:01;2.00;;;1.90;;
24729;SDS011;12832;52.392;13.066;2023-06-22T04:49:29;1.90;;;1.80;;
24729;SDS011;12832;52.392;13.066;2023-06-22T04:52:00;1.90;;;1.80;;
24729;SDS011;12832;52.392;13.066;2023-06-22T04:54:31;1.90;;;1.80;;
24729;SDS011;12832;52.392;13.066;2023-06-22T04:57:01;2.10;;;1.90;;
24729;SDS011;12832;52.392;13.066;2023-06-22T04:59:28;1.85;;;1.75;;
24729;SDS011;12832;52.392;13.066;2023-06-22T05:01:56;2.17;;;2.08;;
24729;SDS011;12832;52.392;13.066;2023-06-22T05:04:24;3.47;;;3.20;;
24729;SDS011;12832;52.392;13.066;2023-06-22T05:06:51;3.33;;;3.03;;
24729;SDS011;12832;52.392;13.066;2023-06-22T05:09:18;3.00;;;2.80;;
24729;SDS011;12832;52.392;13.066;2023-06-22T05:11:45;5.95;;;4.65;;
24729;SDS011;12832;52.392;13.066;2023-06-22T05:14:11;4.63;;;4.20;;
24729;SDS011;12832;52.392;13.066;2023-06-22T05:16:38;4.85;;;4.47;;
24729;SDS011;12832;52.392;13.066;2023-06-22T05:19:05;5.13;;;4.72;;
24729;SDS011;12832;52.392;13.066;2023-06-22T05:21:31;4.60;;;4.20;;
24729;SDS011;12832;52.392;13.066;2023-06-22T05:23:57;5.97;;;5.40;;
24729;SDS011;12832;52.392;13.066;2023-06-22T05:26:32;5.35;;;4.85;;
24729;SDS011;12832;52.392;13.066;2023-06-22T05:28:59;7.47;;;5.00;;
24729;SDS011;12832;52.392;13.066;2023-06-22T05:31:28;4.68;;;4.38;;
24729;SDS011;12832;52.392;13.066;2023-06-22T05:33:55;4.88;;;4.50;;
24729;SDS011;12832;52.392;13.066;2023-06-22T05:36:22;5.18;;;4.72;;
24729;SDS011;12832;52.392;13.066;2023-06-22T05:38:51;5.45;;;5.03;;
24729;SDS011;12832;52.392;13.066;2023-06-22T05:41:18;6.43;;;5.82;;
24729;SDS011;12832;52.392;13.066;2023-06-22T05:43:44;5.53;;;5.03;;
24729;SDS011;12832;52.392;13.066;2023-06-22T05:46:11;5.38;;;4.45;;
24729;SDS011;12832;52.392;13.066;2023-06-22T05:48:37;5.03;;;4.60;;
24729;SDS011;12832;52.392;13.066;2023-06-22T05:51:03;5.03;;;4.30;;
24729;SDS011;12832;52.392;13.066;2023-06-22T05:53:29;4.85;;;4.50;;
24729;SDS011;12832;52.392;13.066;2023-06-22T05:55:55;6.10;;;4.63;;
24729;SDS011;12832;52.392;13.066;2023-06-22T05:58:21;4.70;;;4.30;;
24729;SDS011;12832;52.392;13.066;2023-06-22T06:00:48;4.38;;;4.07;;
24729;SDS011;12832;52.392;13.066;2023-06-22T06:03:14;4.68;;;4.25;;
24729;SDS011;12832;52.392;13.066;2023-06-22T06:05:42;4.88;;;4.47;;
24729;SDS011;12832;52.392;13.066;2023-06-22T06:08:10;4.50;;;4.20;;
24729;SDS011;12832;52.392;13.066;2023-06-22T06:10:36;6.70;;;5.18;;
24729;SDS011;12832;52.392;13.066;2023-06-22T06:13:03;4.55;;;4.25;;
24729;SDS011;12832;52.392;13.066;2023-06-22T06:15:30;5.82;;;5.32;;
24729;SDS011;12832;52.392;13.066;2023-06-22T06:17:57;5.00;;;4.60;;
24729;SDS011;12832;52.392;13.066;2023-06-22T06:20:24;5.68;;;5.18;;
24729;SDS011;12832;52.392;13.066;2023-06-22T06:22:54;5.97;;;5.40;;
24729;SDS011;12832;52.392;13.066;2023-06-22T06:25:20;5.68;;;5.18;;
24729;SDS011;12832;52.392;13.066;2023-06-22T06:27:47;5.85;;;5.35;;
24729;SDS011;12832;52.392;13.066;2023-06-22T06:30:16;5.75;;;4.75;;
24729;SDS011;12832;52.392;13.066;2023-06-22T06:32:44;4.72;;;4.22;;
24729;SDS011;12832;52.392;13.066;2023-06-22T06:35:11;5.72;;;4.63;;
24729;SDS011;12832;52.392;13.066;2023-06-22T06:37:39;5.25;;;4.80;;
24729;SDS011;12832;52.392;13.066;2023-06-22T06:40:07;4.43;;;4.03;;
24729;SDS011;12832;52.392;13.066;2023-06-22T06:42:39;4.53;;;4.13;;
24729;SDS011;12832;52.392;13.066;2023-06-22T06:45:07;4.28;;;3.97;;
24729;SDS011;12832;52.392;13.066;2023-06-22T06:47:34;4.75;;;4.13;;
24729;SDS011;12832;52.392;13.066;2023-06-22T06:50:01;5.10;;;4.15;;
24729;SDS011;12832;52.392;13.066;2023-06-22T06:52:27;4.40;;;4.00;;
24729;SDS011;12832;52.392;13.066;2023-06-22T06:54:53;4.63;;;4.22;;
24729;SDS011;12832;52.392;13.066;2023-06-22T06:57:20;4.38;;;3.72;;
24729;SDS011;12832;52.392;13.066;2023-06-22T06:59:46;3.50;;;3.30;;
24729;SDS011;12832;52.392;13.066;2023-06-22T07:02:12;3.92;;;3.53;;
24729;SDS011;12832;52.392;13.066;2023-06-22T07:04:40;4.07;;;3.60;;
24729;SDS011;12832;52.392;13.066;2023-06-22T07:07:06;4.13;;;3.63;;
24729;SDS011;12832;52.392;13.066;2023-06-22T07:09:33;4.30;;;3.30;;
24729;SDS011;12832;52.392;13.066;2023-06-22T07:11:59;4.05;;;3.40;;
24729;SDS011;12832;52.392;13.066;2023-06-22T07:14:25;4.00;;;3.63;;
24729;SDS011;12832;52.392;13.066;2023-06-22T07:16:51;4.07;;;3.78;;
24729;SDS011;12832;52.392;13.066;2023-06-22T07:19:23;3.78;;;3.47;;
24729;SDS011;12832;52.392;13.066;2023-06-22T07:21:51;4.95;;;3.63;;
24729;SDS011;12832;52.392;13.066;2023-06-22T07:24:17;4.55;;;3.63;;
24729;SDS011;12832;52.392;13.066;2023-06-22T07:26:46;3.80;;;3.50;;
24729;SDS011;12832;52.392;13.066;2023-06-22T07:29:14;3.90;;;3.17;;
24729;SDS011;12832;52.392;13.066;2023-06-22T07:31:40;3.17;;;2.92;;
24729;SDS011;12832;52.392;13.066;2023-06-22T07:34:06;4.13;;;3.72;;
24729;SDS011;12832;52.392;13.066;2023-06-22T07:36:33;4.70;;;3.95;;
24729;SDS011;12832;52.392;13.066;2023-06-22T07:39:02;4.68;;;4.20;;
24729;SDS011;12832;52.392;13.066;2023-06-22T07:41:29;4.75;;;4.35;;
24729;SDS011;12832;52.392;13.066;2023-06-22T07:43:56;5.35;;;4.32;;
24729;SDS011;12832;52.392;13.066;2023-06-22T07:46:22;5.10;;;4.55;;
24729;SDS011;12832;52.392;13.066;2023-06-22T07:48:49;4.32;;;3.92;;
24729;SDS011;12832;52.392;13.066;2023-06-22T07:51:15;4.85;;;3.45;;
24729;SDS011;12832;52.392;13.066;2023-06-22T07:53:42;4.40;;;4.00;;
24729;SDS011;12832;52.392;13.066;2023-06-22T07:56:12;4.40;;;3.90;;
24729;SDS011;12832;52.392;13.066;2023-06-22T07:58:39;3.72;;;3.42;;
24729;SDS011;12832;52.392;13.066;2023-06-22T08:01:05;3.63;;;3.33;;
24729;SDS011;12832;52.392;13.066;2023-06-22T08:03:35;4.28;;;3.45;;
24729;SDS011;12832;52.392;13.066;2023-06-22T08:06:01;3.67;;;2.97;;
24729;SDS011;12832;52.392;13.066;2023-06-22T08:08:28;4.65;;;3.85;;
24729;SDS011;12832;52.392;13.066;2023-06-22T08:10:54;3.80;;;3.50;;
24729;SDS011;12832;52.392;13.066;2023-06-22T08:13:20;3.53;;;3.22;;
24729;SDS011;12832;52.392;13.066;2023-06-22T08:15:46;3.28;;;2.90;;
24729;SDS011;12832;52.392;13.066;2023-06-22T08:18:15;4.95;;;3.53;;
24729;SDS011;12832;52.392;13.066;2023-06-22T08:20:42;3.58;;;3.28;;
24729;SDS011;12832;52.392;13.066;2023-06-22T08:23:08;3.80;;;3.50;;
24729;SDS011;12832;52.392;13.066;2023-06-22T08:25:34;4.00;;;3.70;;
24729;SDS011;12832;52.392;13.066;2023-06-22T08:28:04;2.97;;;2.78;;
24729;SDS011;12832;52.392;13.066;2023-06-22T08:30:30;3.65;;;3.30;;
24729;SDS011;12832;52.392;13.066;2023-06-22T08:32:57;3.40;;;3.10;;
24729;SDS011;12832;52.392;13.066;2023-06-22T08:35:23;3.25;;;2.80;;
24729;SDS011;12832;52.392;13.066;2023-06-22T08:37:50;3.65;;;3.35;;
24729;SDS011;12832;52.392;13.066;2023-06-22T08:40:19;3.35;;;3.15;;
24729;SDS011;12832;52.392;13.066;2023-06-22T08:42:47;3.28;;;3.08;;
24729;SDS011;12832;52.392;13.066;2023-06-22T08:45:13;3.70;;;3.40;;
24729;SDS011;12832;52.392;13.066;2023-06-22T08:47:40;5.55;;;3.40;;
24729;SDS011;12832;52.392;13.066;2023-06-22T08:50:08;3.80;;;3.25;;
24729;SDS011;12832;52.392;13.066;2023-06-22T08:52:35;4.05;;;2.92;;
24729;SDS011;12832;52.392;13.066;2023-06-22T08:55:02;3.90;;;3.50;;
24729;SDS011;12832;52.392;13.066;2023-06-22T08:57:29;3.35;;;2.80;;
24729;SDS011;12832;52.392;13.066;2023-06-22T08:59:59;3.03;;;2.83;;
24729;SDS011;12832;52.392;13.066;2023-06-22T09:02:26;4.82;;;3.30;;
24729;SDS011;12832;52.392;13.066;2023-06-22T09:04:58;4.10;;;2.70;;
24729;SDS011;12832;52.392;13.066;2023-06-22T09:07:25;3.00;;;2.70;;
24729;SDS011;12832;52.392;13.066;2023-06-22T09:09:52;3.30;;;3.00;;
24729;SDS011;12832;52.392;13.066;2023-06-22T09:12:19;3.50;;;2.80;;
24729;SDS011;12832;52.392;13.066;2023-06-22T09:14:48;3.42;;;3.13;;
24729;SDS011;12832;52.392;13.066;2023-06-22T09:17:14;3.55;;;3.00;;
24729;SDS011;12832;52.392;13.066;2023-06-22T09:19:40;4.10;;;3.45;;
24729;SDS011;12832;52.392;13.066;2023-06-22T09:22:06;2.92;;;2.72;;
24729;SDS011;12832;52.392;13.066;2023-06-22T09:24:32;2.97;;;2.78;;
24729;SDS011;12832;52.392;13.066;2023-06-22T09:26:59;4.20;;;2.60;;
24729;SDS011;12832;52.392;13.066;2023-06-22T09:29:25;4.35;;;3.17;;
24729;SDS011;12832;52.392;13.066;2023-06-22T09:31:51;2.83;;;2.58;;
24729;SDS011;12832;52.392;13.066;2023-06-22T09:34:19;4.00;;;2.90;;
24729;SDS011;12832;52.392;13.066;2023-06-22T09:36:46;3.75;;;2.83;;
24729;SDS011;12832;52.392;13.066;2023-06-22T09:39:12;2.92;;;2.65;;
24729;SDS011;12832;52.392;13.066;2023-06-22T09:41:39;2.65;;;2.45;;
24729;SDS011;12832;52.392;13.066;2023-06-22T09:44:06;4.18;;;2.70;;
24729;SDS011;12832;52.392;13.066;2023-06-22T09:46:32;2.97;;;2.72;;
24729;SDS011;12832;52.392;13.066;2023-06-22T09:48:58;2.83;;;2.40;;
24729;SDS011;12832;52.392;13.066;2023-06-22T09:51:25;2.85;;;2.42;;
24729;SDS011;12832;52.392;13.066;2023-06-22T09:53:51;2.95;;;2.67;;
24729;SDS011;12832;52.392;13.066;2023-06-22T09:56:19;3.42;;;2.88;;
24729;SDS011;12832;52.392;13.066;2023-06-22T09:58:46;3.63;;;3.08;;
24729;SDS011;12832;52.392;13.066;2023-06-22T10:01:12;2.92;;;2.72;;
24729;SDS011;12832;52.392;13.066;2023-06-22T10:03:42;3.30;;;2.72;;
24729;SDS011;12832;52.392;13.066;2023-06-22T10:06:08;2.88;;;2.58;;
24729;SDS011;12832;52.392;13.066;2023-06-22T10:08:34;3.60;;;3.10;;
24729;SDS011;12832;52.392;13.066;2023-06-22T10:11:02;3.45;;;2.42;;
24729;SDS011;12832;52.392;13.066;2023-06-22T10:13:29;4.57;;;3.28;;
24729;SDS011;12832;52.392;13.066;2023-06-22T10:15:55;4.85;;;2.58;;
24729;SDS011;12832;52.392;13.066;2023-06-22T10:18:21;3.35;;;3.08;;
24729;SDS011;12832;52.392;13.066;2023-06-22T10:20:48;2.60;;;2.40;;
24729;SDS011;12832;52.392;13.066;2023-06-22T10:23:19;3.15;;;2.72;;
24729;SDS011;12832;52.392;13.066;2023-06-22T10:25:46;3.42;;;2.72;;
24729;SDS011;12832;52.392;13.066;2023-06-22T10:28:15;3.10;;;2.80;;
24729;SDS011;12832;52.392;13.066;2023-06-22T10:30:42;3.17;;;2.50;;
24729;SDS011;12832;52.392;13.066;2023-06-22T10:33:09;3.28;;;2.92;;
24729;SDS011;12832;52.392;13.066;2023-06-22T10:35:36;2.97;;;2.42;;
24729;SDS011;12832;52.392;13.066;2023-06-22T10:38:06;3.58;;;2.60;;
24729;SDS011;12832;52.392;13.066;2023-06-22T10:40:33;6.88;;;3.60;;
24729;SDS011;12832;52.392;13.066;2023-06-22T10:43:00;3.78;;;2.78;;
24729;SDS011;12832;52.392;13.066;2023-06-22T10:45:26;3.42;;;2.72;;
24729;SDS011;12832;52.392;13.066;2023-06-22T10:47:53;3.10;;;2.70;;
24729;SDS011;12832;52.392;13.066;2023-06-22T10:50:20;3.40;;;2.90;;
24729;SDS011;12832;52.392;13.066;2023-06-22T10:52:46;3.72;;;3.17;;
24729;SDS011;12832;52.392;13.066;2023-06-22T10:55:12;2.63;;;2.40;;
24729;SDS011;12832;52.392;13.066;2023-06-22T10:57:38;6.10;;;3.20;;
24729;SDS011;12832;52.392;13.066;2023-06-22T11:00:08;3.33;;;3.00;;
24729;SDS011;12832;52.392;13.066;2023-06-22T11:02:36;4.13;;;2.80;;
24729;SDS011;12832;52.392;13.066;2023-06-22T11:05:03;4.28;;;3.28;;
24729;SDS011;12832;52.392;13.066;2023-06-22T11:07:29;3.15;;;2.85;;
24729;SDS011;12832;52.392;13.066;2023-06-22T11:09:56;3.17;;;2.90;;
24729;SDS011;12832;52.392;13.066;2023-06-22T11:12:22;4.43;;;3.30;;
24729;SDS011;12832;52.392;13.066;2023-06-22T11:14:48;3.63;;;3.33;;
24729;SDS011;12832;52.392;13.066;2023-06-22T11:17:17;3.70;;;3.35;;
24729;SDS011;12832;52.392;13.066;2023-06-22T11:19:44;2.60;;;2.40;;
24729;SDS011;12832;52.392;13.066;2023-06-22T11:22:10;4.00;;;3.13;;
24729;SDS011;12832;52.392;13.066;2023-06-22T11:24:36;3.13;;;2.88;;
24729;SDS011;12832;52.392;13.066;2023-06-22T11:27:03;3.22;;;2.92;;
24729;SDS011;12832;52.392;13.066;2023-06-22T11:29:30;6.40;;;2.90;;
24729;SDS011;12832;52.392;13.066;2023-06-22T11:32:04;2.97;;;2.70;;
24729;SDS011;12832;52.392;13.066;2023-06-22T11:34:32;3.42;;;3.13;;
24729;SDS011;12832;52.392;13.066;2023-06-22T11:36:58;4.05;;;3.65;;
24729;SDS011;12832;52.392;13.066;2023-06-22T11:39:24;3.03;;;2.72;;
24729;SDS011;12832;52.392;13.066;2023-06-22T11:42:06;3.58;;;3.28;;
24729;SDS011;12832;52.392;13.066;2023-06-22T11:44:33;3.10;;;2.88;;
24729;SDS011;12832;52.392;13.066;2023-06-22T11:46:59;3.30;;;2.85;;
24729;SDS011;12832;52.392;13.066;2023-06-22T11:49:26;3.05;;;2.83;;
24729;SDS011;12832;52.392;13.066;2023-06-22T11:51:53;3.40;;;3.10;;
24729;SDS011;12832;52.392;13.066;2023-06-22T11:54:19;4.30;;;3.45;;
24729;SDS011;12832;52.392;13.066;2023-06-22T11:56:45;3.13;;;2.92;;
24729;SDS011;12832;52.392;13.066;2023-06-22T11:59:11;2.80;;;2.60;;
24729;SDS011;12832;52.392;13.066;2023-06-22T12:01:37;3.00;;;2.70;;
24729;SDS011;12832;52.392;13.066;2023-06-22T12:04:04;3.28;;;2.97;;
24729;SDS011;12832;52.392;13.066;2023-06-22T12:06:31;4.38;;;3.08;;
24729;SDS011;12832;52.392;13.066;2023-06-22T12:08:59;4.43;;;3.00;;
24729;SDS011;12832;52.392;13.066;2023-06-22T12:11:25;3.33;;;3.03;;
24729;SDS011;12832;52.392;13.066;2023-06-22T12:13:51;2.90;;;2.70;;
24729;SDS011;12832;52.392;13.066;2023-06-22T12:16:17;4.30;;;3.38;;
24729;SDS011;12832;52.392;13.066;2023-06-22T12:18:44;3.47;;;3.17;;
24729;SDS011;12832;52.392;13.066;2023-06-22T12:21:10;2.70;;;2.50;;
24729;SDS011;12832;52.392;13.066;2023-06-22T12:23:36;3.10;;;2.90;;
24729;SDS011;12832;52.392;13.066;2023-06-22T12:26:02;2.90;;;2.70;;
24729;SDS011;12832;52.392;13.066;2023-06-22T12:28:29;3.05;;;2.80;;
24729;SDS011;12832;52.392;13.066;2023-06-22T12:30:55;3.50;;;3.20;;
24729;SDS011;12832;52.392;13.066;2023-06-22T12:33:21;2.70;;;2.50;;
24729;SDS011;12832;52.392;13.066;2023-06-22T12:35:47;3.35;;;3.15;;
24729;SDS011;12832;52.392;13.066;2023-06-22T12:38:14;3.35;;;3.05;;
24729;SDS011;12832;52.392;13.066;2023-06-22T12:40:40;2.80;;;2.60;;
24729;SDS011;12832;52.392;13.066;2023-06-22T12:43:07;3.08;;;2.88;;
24729;SDS011;12832;52.392;13.066;2023-06-22T12:45:33;4.15;;;2.92;;
24729;SDS011;12832;52.392;13.066;2023-06-22T12:48:00;3.13;;;2.85;;
24729;SDS011;12832;52.392;13.066;2023-06-22T12:50:26;2.80;;;2.60;;
24729;SDS011;12832;52.392;13.066;2023-06-22T12:52:53;3.40;;;3.20;;
24729;SDS011;12832;52.392;13.066;2023-06-22T12:55:20;3.40;;;3.20;;
24729;SDS011;12832;52.392;13.066;2023-06-22T12:57:50;3.90;;;3.25;;
24729;SDS011;12832;52.392;13.066;2023-06-22T13:00:16;4.10;;;3.78;;
24729;SDS011;12832;52.392;13.066;2023-06-22T13:02:43;3.50;;;3.20;;
24729;SDS011;12832;52.392;13.066;2023-06-22T13:05:09;3.75;;;3.45;;
24729;SDS011;12832;52.392;13.066;2023-06-22T13:07:35;3.42;;;3.13;;
24729;SDS011;12832;52.392;13.066;2023-06-22T13:10:01;3.38;;;3.17;;
24729;SDS011;12832;52.392;13.066;2023-06-22T13:12:28;3.50;;;3.30;;
24729;SDS011;12832;52.392;13.066;2023-06-22T13:14:54;3.42;;;3.13;;
24729;SDS011;12832;52.392;13.066;2023-06-22T13:17:20;3.80;;;3.28;;
24729;SDS011;12832;52.392;13.066;2023-06-22T13:19:47;3.60;;;3.30;;
24729;SDS011;12832;52.392;13.066;2023-06-22T13:22:29;3.15;;;2.85;;
24729;SDS011;12832;52.392;13.066;2023-06-22T13:25:05;3.42;;;3.15;;
24729;SDS011;12832;52.392;13.066;2023-06-22T13:27:32;3.72;;;3.42;;
24729;SDS011;12832;52.392;13.066;2023-06-22T13:29:58;3.22;;;3.03;;
24729;SDS011;12832;52.392;13.066;2023-06-22T13:32:24;3.47;;;3.28;;
24729;SDS011;12832;52.392;13.066;2023-06-22T13:34:51;3.47;;;3.17;;
24729;SDS011;12832;52.392;13.066;2023-06-22T13:37:18;3.50;;;3.20;;
24729;SDS011;12832;52.392;13.066;2023-06-22T13:39:44;4.38;;;3.67;;
24729;SDS011;12832;52.392;13.066;2023-06-22T13:42:11;3.90;;;3.60;;
24729;SDS011;12832;52.392;13.066;2023-06-22T13:44:37;4.03;;;3.10;;
24729;SDS011;12832;52.392;13.066;2023-06-22T13:47:03;3.00;;;2.80;;
24729;SDS011;12832;52.392;13.066;2023-06-22T13:49:30;3.22;;;2.92;;
24729;SDS011;12832;52.392;13.066;2023-06-22T13:51:56;3.33;;;3.03;;
24729;SDS011;12832;52.392;13.066;2023-06-22T13:54:23;3.47;;;3.17;;
24729;SDS011;12832;52.392;13.066;2023-06-22T13:56:55;3.65;;;3.25;;
24729;SDS011;12832;52.392;13.066;2023-06-22T13:59:22;3.97;;;3.67;;
24729;SDS011;12832;52.392;13.066;2023-06-22T14:01:48;3.75;;;3.45;;
24729;SDS011;12832;52.392;13.066;2023-06-22T14:04:14;3.47;;;3.25;;
24729;SDS011;12832;52.392;13.066;2023-06-22T14:06:41;3.83;;;3.53;;
24729;SDS011;12832;52.392;13.066;2023-06-22T14:09:07;4.80;;;3.42;;
24729;SDS011;12832;52.392;13.066;2023-06-22T14:11:33;3.67;;;3.22;;
24729;SDS011;12832;52.392;13.066;2023-06-22T14:13:59;4.07;;;3.17;;
24729;SDS011;12832;52.392;13.066;2023-06-22T14:16:25;4.40;;;3.47;;
24729;SDS011;12832;52.392;13.066;2023-06-22T14:18:52;2.83;;;2.63;;
24729;SDS011;12832;52.392;13.066;2023-06-22T14:21:21;3.85;;;3.42;;
24729;SDS011;12832;52.392;13.066;2023-06-22T14:23:47;3.50;;;3.25;;
24729;SDS011;12832;52.392;13.066;2023-06-22T14:26:15;4.22;;;3.08;;
24729;SDS011;12832;52.392;13.066;2023-06-22T14:28:47;4.20;;;3.22;;
24729;SDS011;12832;52.392;13.066;2023-06-22T14:31:16;3.58;;;3.28;;
24729;SDS011;12832;52.392;13.066;2023-06-22T14:33:45;3.58;;;3.28;;
24729;SDS011;12832;52.392;13.066;2023-06-22T14:36:13;3.70;;;3.40;;
24729;SDS011;12832;52.392;13.066;2023-06-22T14:38:44;3.25;;;3.05;;